Portada
METAR-TAF:

METAR-TAF

Aeropuertos :

Hannibal, Misuri, Estados Unidos

latitud: 39-43-31N, longitud: 091-26-38W, altitud: 234 m

Observación

El informe se hizo hace 27 minutos, a las 07:35 UTC
Viento calma
Temperatura 13°C
Humedad 94%
Presión 1024 hPa
Visibilidad: 16.1 km
Cielo despejado

METAR: KHAE 310735Z AUTO 00000KT 10SM CLR 13/12 A3025 RMK AO2

Hora: 03:02 (08:02 UTC)


TAF: falta

Observaciones y pronósticos meteorológicos de más de 4000 aeropuertos (mensajes METAR y TAF).

Los puntos amarillos y rojos representan las estaciones disponibles.

Ponga el ratón en el punto deseado para ver el nombre de la estación.

Haga clic para ver las observaciones y los pronósticos meteorológicos.

Para cambiar el mapa : haga clic en los botones verdes con una cruz de color negro para hacer un zoom, en el botón verde con un guión para alejar o en las flechas verdes para mapas adyacentes.


METAR-TAF: